createdAt,value
2018-02-07T00:01:13.183Z,56.70
2018-02-07T00:03:40.687Z,54.25
2018-02-07T00:06:08.949Z,64.53
2018-02-07T00:08:36.476Z,59.05
2018-02-07T00:11:04.734Z,59.67
2018-02-07T00:13:32.249Z,65.12
2018-02-07T00:15:59.756Z,57.28
2018-02-07T00:18:28.076Z,60.72
2018-02-07T00:20:55.595Z,61.63
2018-02-07T00:23:23.853Z,61.45
2018-02-07T00:25:51.374Z,61.42
2018-02-07T00:28:18.866Z,56.40
2018-02-07T00:30:46.376Z,65.12
2018-02-07T00:33:13.898Z,57.03
2018-02-07T00:35:42.162Z,60.55
2018-02-07T00:38:09.680Z,66.97
2018-02-07T00:40:37.193Z,59.22
2018-02-07T00:43:05.466Z,64.28
2018-02-07T00:45:33.760Z,62.40
2018-02-07T00:48:01.281Z,64.65
2018-02-07T00:50:29.581Z,61.90
2018-02-07T00:52:57.864Z,60.92
2018-02-07T00:55:26.225Z,65.87
2018-02-07T00:57:53.757Z,62.95
2018-02-07T01:00:21.250Z,65.40
2018-02-07T01:02:49.525Z,62.17
2018-02-07T01:05:17.797Z,64.62
2018-02-07T01:07:45.315Z,59.80
2018-02-07T01:10:12.828Z,66.40
2018-02-07T01:12:41.100Z,68.28
2018-02-07T01:15:09.401Z,61.35
2018-02-07T01:17:36.914Z,73.03
2018-02-07T01:20:04.438Z,60.35
2018-02-07T01:22:31.952Z,60.65
2018-02-07T01:25:00.219Z,60.72
2018-02-07T01:27:28.513Z,68.47
2018-02-07T01:29:56.027Z,61.70
2018-02-07T01:32:23.546Z,64.12
2018-02-07T01:34:51.039Z,65.90
2018-02-07T01:37:18.560Z,61.55
2018-02-07T01:39:46.069Z,61.83
2018-02-07T01:42:13.575Z,59.10
2018-02-07T01:44:41.090Z,67.05
2018-02-07T01:47:08.600Z,58.67
2018-02-07T01:49:36.107Z,64.93
2018-02-07T01:52:03.632Z,67.20
2018-02-07T01:54:31.149Z,58.35
2018-02-07T01:56:59.456Z,61.97
2018-02-07T01:59:26.949Z,66.65
2018-02-07T02:01:54.466Z,56.15
2018-02-07T02:04:21.977Z,65.50
2018-02-07T02:06:49.492Z,60.40
2018-02-07T02:09:17.010Z,60.03
2018-02-07T02:11:45.277Z,65.93
2018-02-07T02:14:13.549Z,66.68
2018-02-07T02:16:41.075Z,72.15
2018-02-07T02:19:08.565Z,73.87
2018-02-07T02:21:36.083Z,64.12
2018-02-07T02:24:03.582Z,62.13
2018-02-07T02:26:31.079Z,64.20
2018-02-07T02:28:58.594Z,64.10
2018-02-07T02:31:26.112Z,65.32
2018-02-07T02:33:53.634Z,62.97
2018-02-07T02:36:33.741Z,67.60
2018-02-07T02:39:01.259Z,71.85
2018-02-07T02:41:28.768Z,60.58
2018-02-07T02:43:56.258Z,62.13
2018-02-07T02:46:24.558Z,61.50
2018-02-07T02:48:52.075Z,70.37
2018-02-07T02:51:19.613Z,63.13
2018-02-07T02:53:47.123Z,63.50
2018-02-07T02:56:14.641Z,69.22
2018-02-07T02:58:42.163Z,65.87
2018-02-07T03:01:09.663Z,63.63
2018-02-07T03:03:37.186Z,69.47
2018-02-07T03:06:04.701Z,66.60
2018-02-07T03:08:32.957Z,62.28
2018-02-07T03:11:00.511Z,60.35
2018-02-07T03:13:28.015Z,61.50
2018-02-07T03:15:55.542Z,68.60
2018-02-07T03:18:23.820Z,63.80
2018-02-07T03:20:52.223Z,68.60
2018-02-07T03:23:19.747Z,70.87
2018-02-07T03:25:47.265Z,67.37
2018-02-07T03:28:14.786Z,64.50
2018-02-07T03:30:42.309Z,65.78
2018-02-07T03:33:09.818Z,71.53
2018-02-07T03:35:37.353Z,68.70
2018-02-07T03:38:05.622Z,70.05
2018-02-07T03:40:33.929Z,68.55
2018-02-07T03:43:01.440Z,72.20
2018-02-07T03:45:28.943Z,66.47
2018-02-07T03:47:56.458Z,58.08
2018-02-07T03:50:23.967Z,54.42
2018-02-07T03:52:51.496Z,55.75
2018-02-07T03:55:19.757Z,58.22
2018-02-07T03:57:47.321Z,54.35
2018-02-07T04:00:14.820Z,60.60
2018-02-07T04:02:42.332Z,61.05
2018-02-07T04:05:09.881Z,67.25
2018-02-07T04:07:37.386Z,63.90
2018-02-07T04:10:04.890Z,59.35
2018-02-07T04:12:32.407Z,56.50
2018-02-07T04:14:59.911Z,62.65
2018-02-07T04:17:28.240Z,60.95
2018-02-07T04:19:55.756Z,63.75
2018-02-07T04:22:23.277Z,67.65
2018-02-07T04:24:50.807Z,61.40
2018-02-07T04:27:18.301Z,69.12
2018-02-07T04:29:45.836Z,63.05
2018-02-07T04:32:13.333Z,60.50
2018-02-07T04:34:40.848Z,63.95
2018-02-07T04:37:08.362Z,62.22
2018-02-07T04:39:35.877Z,63.97
2018-02-07T04:42:03.415Z,65.20
2018-02-07T04:44:30.927Z,62.42
2018-02-07T04:46:58.444Z,68.37
2018-02-07T04:49:25.975Z,64.57
2018-02-07T04:51:54.233Z,62.90
2018-02-07T04:54:21.785Z,65.90
2018-02-07T04:56:49.296Z,66.70
2018-02-07T04:59:16.809Z,69.25
2018-02-07T05:01:44.318Z,66.32
2018-02-07T05:04:11.836Z,65.35
2018-02-07T05:06:40.135Z,65.35
2018-02-07T05:09:08.474Z,81.00
2018-02-07T05:11:35.988Z,67.60
2018-02-07T05:14:03.519Z,71.30
2018-02-07T05:16:31.792Z,62.28
2018-02-07T05:19:00.112Z,74.15
2018-02-07T05:21:27.598Z,77.80
2018-02-07T05:23:55.093Z,59.85
2018-02-07T05:26:22.601Z,68.68
2018-02-07T05:28:50.099Z,73.37
2018-02-07T05:31:18.389Z,65.97
2018-02-07T05:33:45.903Z,65.22
2018-02-07T05:36:13.401Z,76.63
2018-02-07T05:38:40.918Z,70.03
2018-02-07T05:41:08.409Z,80.57
2018-02-07T05:43:36.699Z,73.53
2018-02-07T05:46:04.202Z,74.62
2018-02-07T05:48:31.698Z,74.43
2018-02-07T05:50:59.992Z,73.25
2018-02-07T05:53:27.500Z,75.35
2018-02-07T05:55:55.018Z,74.60
2018-02-07T05:58:22.528Z,75.87
2018-02-07T06:00:50.037Z,72.72
2018-02-07T06:03:17.578Z,89.93
2018-02-07T06:05:45.083Z,73.28
2018-02-07T06:08:13.388Z,71.87
2018-02-07T06:10:40.887Z,69.75
2018-02-07T06:13:08.390Z,71.10
2018-02-07T06:15:35.917Z,74.62
2018-02-07T06:18:03.415Z,60.40
2018-02-07T06:20:30.960Z,63.55
2018-02-07T06:22:58.481Z,72.62
2018-02-07T06:25:25.986Z,62.95
2018-02-07T06:27:53.516Z,80.45
2018-02-07T06:30:21.037Z,71.93
2018-02-07T06:32:48.562Z,76.85
2018-02-07T06:35:16.063Z,68.78
2018-02-07T06:37:43.571Z,75.22
2018-02-07T06:40:11.097Z,67.47
2018-02-07T06:42:38.590Z,70.35
2018-02-07T06:45:06.117Z,74.50
2018-02-07T06:47:33.610Z,75.62
2018-02-07T06:50:01.107Z,71.55
2018-02-07T06:52:28.674Z,69.93
2018-02-07T06:54:56.910Z,73.65
2018-02-07T06:57:24.431Z,78.53
2018-02-07T06:59:51.931Z,68.82
2018-02-07T07:02:20.212Z,73.60
2018-02-07T07:04:48.510Z,74.75
2018-02-07T07:07:16.001Z,69.57
2018-02-07T07:09:43.532Z,71.93
2018-02-07T07:12:11.040Z,84.93
2018-02-07T07:14:38.548Z,85.70
2018-02-07T07:17:06.066Z,88.25
2018-02-07T07:19:33.575Z,81.37
2018-02-07T07:22:01.120Z,88.50
2018-02-07T07:24:28.622Z,96.12
2018-02-07T07:26:56.146Z,145.12
2018-02-07T07:29:23.680Z,114.05
2018-02-07T07:31:51.946Z,102.72
2018-02-07T07:34:20.245Z,90.82
2018-02-07T07:36:47.750Z,89.55
2018-02-07T07:39:15.273Z,92.12
2018-02-07T07:41:47.385Z,87.03
2018-02-07T07:44:17.949Z,78.65
2018-02-07T07:46:46.708Z,81.68
2018-02-07T07:49:29.944Z,84.40
2018-02-07T07:51:59.813Z,73.18
2018-02-07T07:54:27.510Z,82.75
2018-02-07T07:56:55.044Z,93.68
2018-02-07T07:59:27.705Z,85.55
2018-02-07T08:01:56.092Z,74.15
2018-02-07T08:04:23.654Z,81.12
2018-02-07T08:06:51.209Z,78.80
2018-02-07T08:09:18.711Z,87.20
2018-02-07T08:11:47.001Z,76.97
2018-02-07T08:14:15.302Z,91.12
2018-02-07T08:16:42.826Z,88.97
2018-02-07T08:19:11.095Z,78.85
2018-02-07T08:21:38.649Z,79.50
2018-02-07T08:24:06.173Z,79.60
2018-02-07T08:26:33.688Z,77.05
2018-02-07T08:29:02.015Z,79.85
2018-02-07T08:31:29.532Z,72.15
2018-02-07T08:33:57.030Z,78.18
2018-02-07T08:36:25.342Z,75.68
2018-02-07T08:38:52.840Z,79.55
2018-02-07T08:41:20.349Z,90.53
2018-02-07T08:43:47.901Z,81.50
2018-02-07T08:46:15.431Z,76.87
2018-02-07T08:48:42.989Z,84.22
2018-02-07T08:51:11.394Z,81.18
2018-02-07T08:53:39.812Z,74.43
2018-02-07T08:56:07.343Z,75.05
2018-02-07T08:58:34.889Z,85.50
2018-02-07T09:01:04.073Z,73.72
2018-02-07T09:03:31.587Z,85.12
2018-02-07T09:06:00.470Z,78.90
2018-02-07T09:08:28.744Z,77.32
2018-02-07T09:10:57.061Z,87.55
2018-02-07T09:13:24.586Z,82.90
2018-02-07T09:15:52.107Z,88.85
2018-02-07T09:18:19.636Z,80.97
2018-02-07T09:20:47.146Z,79.72
2018-02-07T09:23:15.455Z,120.82
2018-02-07T09:25:43.089Z,66.15
2018-02-07T09:28:10.639Z,74.22
2018-02-07T09:30:38.171Z,79.55
2018-02-07T09:33:06.987Z,74.75
2018-02-07T09:35:38.130Z,74.37
2018-02-07T09:38:06.442Z,85.80
2018-02-07T09:40:33.955Z,74.43
2018-02-07T09:43:01.486Z,103.65
2018-02-07T09:45:28.986Z,71.80
2018-02-07T09:47:57.283Z,75.35
2018-02-07T09:50:24.869Z,85.78
2018-02-07T09:52:53.547Z,70.80
2018-02-07T10:15:20.076Z,82.50
2018-02-07T10:20:31.163Z,66.15
2018-02-07T10:22:58.943Z,64.95
2018-02-07T10:25:37.539Z,64.65
2018-02-07T10:28:07.699Z,73.22
2018-02-07T10:30:45.074Z,68.15
2018-02-07T10:38:50.839Z,67.32
2018-02-07T10:41:27.281Z,71.03
2018-02-07T10:44:00.405Z,68.07
2018-02-07T10:46:31.676Z,66.82
2018-02-07T10:49:00.048Z,66.53
2018-02-07T10:51:27.672Z,64.53
2018-02-07T10:53:55.289Z,68.07
2018-02-07T10:56:22.796Z,69.25
2018-02-07T10:58:50.322Z,78.53
2018-02-07T11:01:17.843Z,61.60
2018-02-07T11:03:46.105Z,62.78
2018-02-07T11:06:17.207Z,58.47
2018-02-07T11:08:53.657Z,67.20
2018-02-07T11:11:24.907Z,74.85
2018-02-07T11:14:06.246Z,63.97
2018-02-07T11:16:46.207Z,67.82
2018-02-07T11:19:40.504Z,63.30
2018-02-07T11:22:12.221Z,65.82
2018-02-07T11:24:40.602Z,75.28
2018-02-07T11:27:09.908Z,76.03
2018-02-07T11:29:44.537Z,72.55
2018-02-07T11:32:24.061Z,71.07
2018-02-07T11:34:57.800Z,70.37
2018-02-07T11:37:28.174Z,64.57
2018-02-07T11:39:57.632Z,62.60
2018-02-07T11:42:25.366Z,64.93
2018-02-07T11:44:56.512Z,81.55
2018-02-07T11:47:25.991Z,73.80
2018-02-07T11:50:00.913Z,85.32
2018-02-07T11:52:40.323Z,72.12
2018-02-07T11:55:08.437Z,69.32
2018-02-07T11:57:38.407Z,69.10
2018-02-07T12:00:11.130Z,76.78
2018-02-07T12:02:40.825Z,78.40
2018-02-07T12:05:09.864Z,67.18
2018-02-07T12:07:37.448Z,73.15
2018-02-07T12:10:04.964Z,71.97
2018-02-07T12:12:32.505Z,66.43
2018-02-07T12:15:00.789Z,79.55
2018-02-07T12:17:28.304Z,70.18
2018-02-07T12:19:55.818Z,63.00
2018-02-07T12:22:23.314Z,69.10
2018-02-07T12:24:50.850Z,71.93
2018-02-07T12:27:19.161Z,71.05
2018-02-07T12:29:46.657Z,72.55
2018-02-07T12:32:14.184Z,68.40
2018-02-07T12:34:41.677Z,72.62
2018-02-07T12:37:11.066Z,73.20
2018-02-07T12:39:38.763Z,82.72
2018-02-07T12:42:09.010Z,77.20
2018-02-07T12:44:37.679Z,75.40
2018-02-07T12:47:06.447Z,78.37
2018-02-07T12:49:34.243Z,75.07
2018-02-07T12:52:02.037Z,71.30
2018-02-07T12:54:29.765Z,74.30
2018-02-07T12:56:58.201Z,81.65
2018-02-07T12:59:26.625Z,75.95
2018-02-07T13:01:55.434Z,74.47
2018-02-07T13:04:23.129Z,78.75
2018-02-07T13:06:50.797Z,77.82
2018-02-07T13:09:18.295Z,79.68
2018-02-07T13:11:46.577Z,77.20
2018-02-07T13:14:14.106Z,81.97
2018-02-07T13:16:41.634Z,74.47
2018-02-07T13:19:09.180Z,81.37
2018-02-07T13:21:36.697Z,91.53
2018-02-07T13:24:04.963Z,88.45
2018-02-07T13:26:32.492Z,78.18
2018-02-07T13:28:59.994Z,76.22
2018-02-07T13:31:28.322Z,82.57
2018-02-07T13:33:55.811Z,77.72
2018-02-07T13:36:23.384Z,80.80
2018-02-07T13:38:50.881Z,75.95
2018-02-07T13:41:18.391Z,78.07
2018-02-07T13:43:46.684Z,76.53
2018-02-07T13:46:14.961Z,73.78
2018-02-07T13:48:42.487Z,77.72
2018-02-07T13:51:10.003Z,77.90
2018-02-07T13:53:37.511Z,81.97
2018-02-07T13:56:05.030Z,73.78
2018-02-07T13:58:32.544Z,74.75
2018-02-07T14:01:00.838Z,67.93
2018-02-07T14:03:28.364Z,70.62
2018-02-07T14:05:55.880Z,89.03
2018-02-07T14:08:23.428Z,71.75
2018-02-07T14:10:50.922Z,63.10
2018-02-07T14:13:18.453Z,81.12
2018-02-07T14:15:45.969Z,68.30
2018-02-07T14:18:14.283Z,68.95
2018-02-07T14:20:41.778Z,72.30
2018-02-07T14:23:09.270Z,67.93
2018-02-07T14:25:37.560Z,71.93
2018-02-07T14:28:05.080Z,63.50
2018-02-07T14:30:32.603Z,68.82
2018-02-07T14:33:00.108Z,66.40
2018-02-07T14:35:28.417Z,65.53
2018-02-07T14:37:55.914Z,66.07
2018-02-07T14:40:23.406Z,63.85
2018-02-07T14:42:51.686Z,61.05
2018-02-07T14:45:19.965Z,66.07
2018-02-07T14:47:48.241Z,60.72
2018-02-07T14:50:16.505Z,64.78
2018-02-07T14:52:44.804Z,61.75
2018-02-07T14:55:12.311Z,65.72
2018-02-07T14:57:39.824Z,55.47
2018-02-07T15:00:07.337Z,69.37
2018-02-07T15:02:34.829Z,61.22
2018-02-07T15:05:03.161Z,57.38
2018-02-07T15:07:30.660Z,55.42
2018-02-07T15:09:58.942Z,59.25
2018-02-07T15:12:26.438Z,60.83
2018-02-07T15:14:54.712Z,66.40
2018-02-07T15:17:22.235Z,62.75
2018-02-07T15:19:49.734Z,66.00
2018-02-07T15:22:17.289Z,60.65
2018-02-07T15:24:44.786Z,71.12
2018-02-07T15:27:12.286Z,69.40
2018-02-07T15:29:39.802Z,66.55
2018-02-07T15:32:07.316Z,70.53
2018-02-07T15:34:34.830Z,59.42
2018-02-07T15:37:03.104Z,62.88
2018-02-07T15:39:31.375Z,72.47
2018-02-07T15:41:59.655Z,65.25
2018-02-07T15:44:27.931Z,67.90
2018-02-07T15:46:56.220Z,71.18
2018-02-07T15:49:23.715Z,65.50
2018-02-07T15:51:51.224Z,82.68
2018-02-07T15:54:19.506Z,68.40
2018-02-07T15:56:47.809Z,57.65
2018-02-07T15:59:15.319Z,65.45
2018-02-07T16:01:42.828Z,70.47
2018-02-07T16:04:10.341Z,57.75
2018-02-07T16:06:37.854Z,67.45
2018-02-07T16:09:05.353Z,74.53
2018-02-07T16:11:32.869Z,66.47
2018-02-07T16:14:00.380Z,74.37
2018-02-07T16:16:28.656Z,84.40
2018-02-07T16:18:56.943Z,65.57
2018-02-07T16:21:25.201Z,62.75
2018-02-07T16:23:52.736Z,73.03
2018-02-07T16:26:20.225Z,77.53
2018-02-07T16:28:48.513Z,75.85
2018-02-07T16:31:16.807Z,64.25
2018-02-07T16:33:44.316Z,70.15
2018-02-07T16:36:11.834Z,63.83
2018-02-07T16:38:39.339Z,59.83
2018-02-07T16:41:06.834Z,63.58
2018-02-07T16:43:34.372Z,62.70
2018-02-07T16:46:02.640Z,56.45
2018-02-07T16:48:30.937Z,56.15
2018-02-07T16:50:58.442Z,60.83
2018-02-07T16:53:25.967Z,56.90
2018-02-07T16:55:53.477Z,56.88
2018-02-07T16:58:21.003Z,60.45
2018-02-07T17:00:48.494Z,57.53
2018-02-07T17:03:15.999Z,63.83
2018-02-07T17:05:43.519Z,62.08
2018-02-07T17:08:11.032Z,65.65
2018-02-07T17:10:38.568Z,66.95
2018-02-07T17:13:06.076Z,73.03
2018-02-07T17:15:33.571Z,67.47
2018-02-07T17:18:01.869Z,70.55
2018-02-07T17:20:29.361Z,69.37
2018-02-07T17:22:56.882Z,68.65
2018-02-07T17:25:25.191Z,73.95
2018-02-07T17:27:52.692Z,65.18
2018-02-07T17:30:20.966Z,63.08
2018-02-07T17:32:49.222Z,58.92
2018-02-07T17:35:16.744Z,61.25
2018-02-07T17:37:44.242Z,66.37
2018-02-07T17:40:11.775Z,65.20
2018-02-07T17:42:39.284Z,65.15
2018-02-07T17:45:07.554Z,66.93
2018-02-07T17:47:35.848Z,69.30
2018-02-07T17:50:03.351Z,65.07
2018-02-07T17:52:30.901Z,70.50
2018-02-07T17:54:58.412Z,75.50
2018-02-07T17:57:26.682Z,79.22
2018-02-07T17:59:54.975Z,72.50
2018-02-07T18:02:22.524Z,84.15
2018-02-07T18:04:50.798Z,66.82
2018-02-07T18:07:19.066Z,75.55
2018-02-07T18:09:47.349Z,77.07
2018-02-07T18:12:15.645Z,72.43
2018-02-07T18:14:43.164Z,82.60
2018-02-07T18:17:10.701Z,94.45
2018-02-07T18:19:38.225Z,100.12
2018-02-07T18:22:05.764Z,114.32
2018-02-07T18:24:34.040Z,111.68
2018-02-07T18:27:02.311Z,118.22
2018-02-07T18:29:30.627Z,119.30
2018-02-07T18:31:58.153Z,112.50
2018-02-07T18:34:25.694Z,85.50
2018-02-07T18:36:53.963Z,86.80
2018-02-07T18:39:22.253Z,85.53
2018-02-07T18:41:50.540Z,83.62
2018-02-07T18:44:18.051Z,76.85
2018-02-07T18:46:45.601Z,78.75
2018-02-07T18:49:13.103Z,77.72
2018-02-07T18:51:41.389Z,76.07
2018-02-07T18:54:09.674Z,84.50
2018-02-07T18:56:37.192Z,78.37
2018-02-07T18:59:04.722Z,77.07
2018-02-07T19:01:32.227Z,69.47
2018-02-07T19:04:00.513Z,62.70
2018-02-07T19:06:28.818Z,68.50
2018-02-07T19:08:56.336Z,65.28
2018-02-07T19:11:24.629Z,63.50
2018-02-07T19:13:52.941Z,73.68
2018-02-07T19:16:21.719Z,65.47
2018-02-07T19:18:49.307Z,85.10
2018-02-07T19:21:16.834Z,89.80
2018-02-07T19:23:44.370Z,78.70
2018-02-07T19:26:12.642Z,86.70
2018-02-07T19:28:40.965Z,87.40
2018-02-07T19:31:08.482Z,73.18
2018-02-07T19:33:36.044Z,92.53
2018-02-07T19:36:04.844Z,77.30
2018-02-07T19:38:32.381Z,77.43
2018-02-07T19:41:00.667Z,74.05
2018-02-07T19:43:28.182Z,70.87
2018-02-07T19:45:55.715Z,65.03
2018-02-07T19:48:23.226Z,65.60
2018-02-07T19:50:51.506Z,61.22
2018-02-07T19:53:19.810Z,65.65
2018-02-07T19:55:47.352Z,66.30
2018-02-07T19:58:14.897Z,70.93
2018-02-07T20:00:42.445Z,62.08
2018-02-07T20:03:09.970Z,62.75
2018-02-07T20:05:37.537Z,71.25
2018-02-07T20:08:05.103Z,72.60
2018-02-07T20:10:32.641Z,66.65
2018-02-07T20:13:00.164Z,65.65
2018-02-07T20:15:28.429Z,75.68
2018-02-07T20:17:56.746Z,61.75
2018-02-07T20:20:24.312Z,61.17
2018-02-07T20:22:51.843Z,60.08
2018-02-07T20:25:19.376Z,62.25
2018-02-07T20:27:47.704Z,63.17
2018-02-07T20:30:15.265Z,73.93
2018-02-07T20:32:44.298Z,64.20
2018-02-07T20:35:12.262Z,62.53
2018-02-07T20:37:42.851Z,60.78
2018-02-07T20:40:10.401Z,78.57
2018-02-07T20:42:37.920Z,75.07
2018-02-07T20:45:06.249Z,73.12
2018-02-07T20:47:33.772Z,71.20
2018-02-07T20:50:03.066Z,68.15
2018-02-07T20:52:31.352Z,72.53
2018-02-07T20:54:58.880Z,68.45
2018-02-07T20:57:26.436Z,67.22
2018-02-07T20:59:53.971Z,76.80
2018-02-07T21:02:21.498Z,81.50
2018-02-07T21:04:48.997Z,76.10
2018-02-07T21:07:16.545Z,72.65
2018-02-07T21:09:44.107Z,71.57
2018-02-07T21:12:11.625Z,82.37
2018-02-07T21:14:39.203Z,72.12
2018-02-07T21:17:06.702Z,72.37
2018-02-07T21:19:34.987Z,88.82
2018-02-07T21:22:02.512Z,86.15
2018-02-07T21:24:30.034Z,76.85
2018-02-07T21:26:57.612Z,84.35
2018-02-07T21:29:25.094Z,82.93
2018-02-07T21:31:52.623Z,77.25
2018-02-07T21:34:20.127Z,77.95
2018-02-07T21:36:47.640Z,78.87
2018-02-07T21:39:15.156Z,74.22
2018-02-07T21:41:42.655Z,74.70
2018-02-07T21:44:10.192Z,73.12
2018-02-07T21:46:38.463Z,79.28
2018-02-07T21:49:06.740Z,74.95
2018-02-07T21:51:35.018Z,72.82
2018-02-07T21:54:03.294Z,78.75
2018-02-07T21:56:31.581Z,76.00
2018-02-07T21:58:59.093Z,76.72
2018-02-07T22:01:26.593Z,75.03
2018-02-07T22:03:54.874Z,72.12
2018-02-07T22:06:22.384Z,70.40
2018-02-07T22:08:49.950Z,73.20
2018-02-07T22:11:18.958Z,63.17
2018-02-07T22:13:46.496Z,68.82
2018-02-07T22:16:14.781Z,71.95
2018-02-07T22:18:42.291Z,84.05
2018-02-07T22:21:09.819Z,77.03
2018-02-07T22:26:12.166Z,70.75
2018-02-07T22:28:40.444Z,65.95
2018-02-07T22:31:07.964Z,67.95
2018-02-07T22:33:35.483Z,85.28
2018-02-07T22:36:02.988Z,64.55
2018-02-07T22:38:30.528Z,68.30
2018-02-07T22:40:58.807Z,70.00
2018-02-07T22:43:27.093Z,71.22
2018-02-07T22:45:54.604Z,77.45
2018-02-07T22:48:22.104Z,80.15
2018-02-07T22:50:49.641Z,78.32
2018-02-07T22:53:17.911Z,82.75
2018-02-07T22:55:45.438Z,92.35
2018-02-07T22:58:12.937Z,87.03
2018-02-07T23:00:41.206Z,87.70
2018-02-07T23:03:08.741Z,103.90
2018-02-07T23:05:36.261Z,86.63
2018-02-07T23:08:03.777Z,86.25
2018-02-07T23:10:31.295Z,78.03
2018-02-07T23:12:58.822Z,94.43
2018-02-07T23:15:26.324Z,75.75
2018-02-07T23:17:53.840Z,88.53
2018-02-07T23:20:21.355Z,83.75
2018-02-07T23:22:48.849Z,85.38
2018-02-07T23:25:17.129Z,83.97
2018-02-07T23:27:44.648Z,77.40
2018-02-07T23:30:12.163Z,86.20
2018-02-07T23:32:39.662Z,70.45
2018-02-07T23:35:07.187Z,78.87
2018-02-07T23:37:34.698Z,70.18
2018-02-07T23:40:02.214Z,74.78
2018-02-07T23:42:29.726Z,75.40
2018-02-07T23:44:58.004Z,92.18
2018-02-07T23:47:26.293Z,75.62
2018-02-07T23:49:53.802Z,77.00
2018-02-07T23:52:21.298Z,78.70
2018-02-07T23:54:49.601Z,76.85
2018-02-07T23:57:17.104Z,87.05
2018-02-07T23:59:44.649Z,85.90
